Time;durP1;ratioP1;P1;durP2;ratioP2;P2;SDS_P1;SDS_P2;PMS_P1;PMS_P2;Temp;Humidity;BMP_temperature;BMP_pressure;BME280_temperature;BME280_humidity;BME280_pressure;Samples;Min_cycle;Max_cycle;Signal;HPM_P1;HPM_P2
2021/05/22 00:00:13;;;;;;;8.40;1.60;;;10.30;99.90;;;;;;5056862;28;20190;-90
2021/05/22 00:02:39;;;;;;;5.95;1.25;;;10.30;99.90;;;;;;5056236;28;20175;-88
2021/05/22 00:05:06;;;;;;;5.18;1.17;;;10.30;99.90;;;;;;5056016;28;20221;-90
2021/05/22 00:07:32;;;;;;;3.40;0.93;;;10.30;99.90;;;;;;5055610;28;20163;-89
2021/05/22 00:09:58;;;;;;;4.85;1.15;;;10.30;99.90;;;;;;5054916;28;20199;-90
2021/05/22 00:12:24;;;;;;;5.75;1.45;;;10.30;99.90;;;;;;5055623;28;20215;-90
2021/05/22 00:14:53;;;;;;;3.70;0.82;;;10.40;99.90;;;;;;5056265;28;20174;-89
2021/05/22 00:17:19;;;;;;;4.38;1.33;;;10.40;99.90;;;;;;5039531;28;20213;-89
2021/05/22 00:19:45;;;;;;;2.72;0.98;;;10.50;99.90;;;;;;5055225;28;20266;-90
2021/05/22 00:22:10;;;;;;;6.93;1.00;;;10.60;99.90;;;;;;5055472;28;20194;-89
2021/05/22 00:24:36;;;;;;;5.90;1.02;;;10.60;99.90;;;;;;5054825;28;20168;-89
2021/05/22 00:27:02;;;;;;;7.00;1.20;;;10.70;99.90;;;;;;5055184;28;20167;-90
2021/05/22 00:29:27;;;;;;;6.60;1.20;;;10.70;99.90;;;;;;5054689;28;20190;-90
2021/05/22 00:31:53;;;;;;;4.70;1.17;;;10.90;99.90;;;;;;5053157;28;20533;-90
2021/05/22 00:34:19;;;;;;;6.20;0.93;;;10.90;99.90;;;;;;5079928;28;20179;-92
2021/05/22 00:36:44;;;;;;;7.32;1.17;;;10.90;99.90;;;;;;5054435;28;20172;-91
2021/05/22 00:39:10;;;;;;;9.68;1.50;;;10.90;99.90;;;;;;5054634;28;20183;-89
2021/05/22 00:41:36;;;;;;;9.45;1.40;;;11.00;99.90;;;;;;5057017;28;20215;-88
2021/05/22 00:44:03;;;;;;;7.53;1.20;;;10.90;99.90;;;;;;5059861;28;20179;-90
2021/05/22 00:46:29;;;;;;;2.83;0.93;;;10.90;99.90;;;;;;5058183;28;20167;-89
2021/05/22 00:48:55;;;;;;;5.22;1.30;;;10.90;99.90;;;;;;5056366;28;20266;-90
2021/05/22 00:51:20;;;;;;;6.15;1.80;;;11.00;99.90;;;;;;5055716;28;20206;-90
2021/05/22 00:53:46;;;;;;;4.15;0.95;;;11.00;99.90;;;;;;5055742;28;20252;-90
2021/05/22 00:56:12;;;;;;;5.68;1.73;;;11.00;99.90;;;;;;5054828;28;20172;-90
2021/05/22 00:58:37;;;;;;;3.63;0.80;;;11.00;99.90;;;;;;5054210;28;20172;-89
2021/05/22 01:01:04;;;;;;;3.50;1.10;;;11.00;99.90;;;;;;5037472;28;20180;-90
2021/05/22 01:03:34;;;;;;;9.80;0.93;;;10.90;99.90;;;;;;5053881;28;20175;-91
2021/05/22 01:06:21;;;;;;;6.20;1.50;;;10.90;99.90;;;;;;5054610;28;20235;-91
2021/05/22 01:08:49;;;;;;;10.75;1.10;;;10.90;99.90;;;;;;5053955;28;20229;-91
2021/05/22 01:11:36;;;;;;;6.72;1.08;;;10.90;99.90;;;;;;5066375;28;20620;-89
2021/05/22 01:14:07;;;;;;;6.70;1.15;;;10.70;99.90;;;;;;5075369;28;20152;-92
2021/05/22 01:16:34;;;;;;;7.25;0.90;;;10.70;99.90;;;;;;5075825;28;20179;-90
2021/05/22 01:19:01;;;;;;;7.68;1.88;;;10.80;99.90;;;;;;5038801;28;20629;-91
2021/05/22 01:21:28;;;;;;;2.40;0.90;;;10.80;99.90;;;;;;5055368;28;20201;-92
2021/05/22 01:24:03;;;;;;;6.75;1.30;;;10.90;99.90;;;;;;5054965;28;20209;-91
2021/05/22 01:26:30;;;;;;;2.80;1.15;;;10.90;99.90;;;;;;5053794;28;20171;-90
2021/05/22 01:28:57;;;;;;;8.85;1.58;;;10.90;99.90;;;;;;5065220;28;20187;-90
2021/05/22 01:31:24;;;;;;;7.20;1.52;;;10.90;99.90;;;;;;5073952;28;20182;-89
2021/05/22 01:33:51;;;;;;;3.90;0.93;;;11.00;99.90;;;;;;5070827;28;20175;-91
2021/05/22 01:36:17;;;;;;;6.28;1.20;;;10.90;99.90;;;;;;5053789;28;20196;-92
2021/05/22 01:38:42;;;;;;;5.53;1.10;;;11.00;99.90;;;;;;5053051;28;20182;-92
2021/05/22 01:41:08;;;;;;;4.13;1.00;;;11.00;99.90;;;;;;5036705;28;20167;-91
2021/05/22 01:43:38;;;;;;;4.53;2.03;;;11.00;99.90;;;;;;5053607;28;20604;-90
2021/05/22 01:46:03;;;;;;;11.05;1.20;;;11.00;99.90;;;;;;5053591;28;20259;-91
2021/05/22 01:48:30;;;;;;;8.93;1.63;;;11.00;99.90;;;;;;5053416;28;20259;-92
2021/05/22 01:51:01;;;;;;;2.67;0.88;;;10.90;99.90;;;;;;5036623;28;20175;-91
2021/05/22 01:53:28;;;;;;;4.38;1.10;;;10.90;99.90;;;;;;5053453;28;20621;-90
2021/05/22 01:55:55;;;;;;;3.92;0.95;;;10.80;99.90;;;;;;5053492;28;20163;-90
2021/05/22 01:58:22;;;;;;;6.57;1.70;;;10.90;99.90;;;;;;5054581;28;20187;-90
2021/05/22 02:00:49;;;;;;;8.98;1.70;;;10.90;99.90;;;;;;5056147;28;20532;-92
2021/05/22 02:03:24;;;;;;;6.82;1.10;;;11.00;99.90;;;;;;5057182;28;20258;-91
2021/05/22 02:05:53;;;;;;;7.65;1.23;;;11.00;99.90;;;;;;5057073;28;20226;-93
2021/05/22 02:08:20;;;;;;;8.75;1.08;;;11.00;99.90;;;;;;5057160;28;20637;-90
2021/05/22 02:10:47;;;;;;;11.77;2.03;;;11.10;99.90;;;;;;5057083;28;20264;-89
2021/05/22 02:13:14;;;;;;;14.35;2.58;;;11.10;99.90;;;;;;5057059;28;20222;-89
2021/05/22 02:15:41;;;;;;;6.57;1.20;;;11.20;99.90;;;;;;5057135;28;20178;-90
2021/05/22 02:18:11;;;;;;;12.02;1.60;;;11.20;99.90;;;;;;5057399;28;20750;-91
2021/05/22 02:20:37;;;;;;;9.32;1.83;;;11.20;99.90;;;;;;5057909;28;20261;-91
2021/05/22 02:23:05;;;;;;;10.00;1.48;;;11.20;99.90;;;;;;5058110;28;20163;-91
2021/05/22 02:25:31;;;;;;;7.10;1.27;;;11.20;99.90;;;;;;5057072;28;20632;-91
2021/05/22 02:28:01;;;;;;;9.45;1.73;;;11.20;99.90;;;;;;5056965;28;20171;-92
2021/05/22 02:30:27;;;;;;;12.18;1.92;;;11.20;99.90;;;;;;5056867;28;20640;-91
2021/05/22 02:32:54;;;;;;;13.70;1.88;;;11.30;99.90;;;;;;5056333;28;20269;-92
2021/05/22 02:35:20;;;;;;;7.03;1.60;;;11.30;99.90;;;;;;5040311;28;20172;-91
2021/05/22 02:37:51;;;;;;;8.93;1.98;;;11.30;99.90;;;;;;5056812;28;20171;-92
2021/05/22 02:40:23;;;;;;;7.38;1.67;;;11.30;99.90;;;;;;5040330;28;20183;-92
2021/05/22 02:42:59;;;;;;;7.05;1.55;;;11.30;99.90;;;;;;5056458;28;20622;-91
2021/05/22 02:45:27;;;;;;;12.05;1.88;;;11.30;99.90;;;;;;5056959;28;20169;-90
2021/05/22 02:47:55;;;;;;;14.00;1.83;;;11.30;99.90;;;;;;5056184;28;20178;-90
2021/05/22 02:50:23;;;;;;;8.27;1.80;;;11.30;99.90;;;;;;5057374;28;20719;-91
2021/05/22 02:52:51;;;;;;;9.75;1.73;;;11.30;99.90;;;;;;5039746;28;20209;-91
2021/05/22 02:55:17;;;;;;;9.35;2.20;;;11.30;99.90;;;;;;5040119;28;20199;-90
2021/05/22 02:57:45;;;;;;;15.52;1.80;;;11.30;99.90;;;;;;5056494;28;20187;-93
2021/05/22 03:00:11;;;;;;;5.22;1.60;;;11.30;99.90;;;;;;5055902;28;20207;-91
2021/05/22 03:02:38;;;;;;;12.25;2.13;;;11.20;99.90;;;;;;5036108;28;20271;-89
2021/05/22 03:05:06;;;;;;;9.10;2.30;;;11.20;99.90;;;;;;5052790;28;20175;-90
2021/05/22 03:07:33;;;;;;;7.07;1.95;;;11.20;99.90;;;;;;5035970;28;20184;-90
2021/05/22 03:09:59;;;;;;;13.55;2.08;;;11.20;99.90;;;;;;5055599;28;20247;-91
2021/05/22 03:12:30;;;;;;;6.70;1.73;;;11.20;99.90;;;;;;5037761;28;20190;-89
2021/05/22 03:14:55;;;;;;;8.48;1.88;;;11.20;99.90;;;;;;5056176;28;20164;-89
2021/05/22 03:17:21;;;;;;;11.20;2.28;;;11.30;99.90;;;;;;5055882;28;20212;-88
2021/05/22 03:19:47;;;;;;;10.68;2.15;;;11.30;99.90;;;;;;5056104;28;20175;-89
2021/05/22 03:22:12;;;;;;;6.65;1.58;;;11.30;99.90;;;;;;5055959;28;20172;-93
2021/05/22 03:24:38;;;;;;;11.80;2.20;;;11.30;99.90;;;;;;5057251;28;20171;-91
2021/05/22 03:27:04;;;;;;;5.07;1.38;;;11.20;99.90;;;;;;5056668;28;20255;-92
2021/05/22 03:29:31;;;;;;;9.05;1.67;;;11.20;99.90;;;;;;5056995;28;20648;-93
2021/05/22 03:31:56;;;;;;;7.15;1.67;;;11.20;99.90;;;;;;5039057;28;20628;-90
2021/05/22 03:34:22;;;;;;;9.85;2.13;;;11.20;99.90;;;;;;5055729;28;20179;-91
2021/05/22 03:36:48;;;;;;;7.03;1.52;;;11.20;99.90;;;;;;5055912;28;20586;-91
2021/05/22 03:39:13;;;;;;;6.88;1.55;;;11.20;99.90;;;;;;5043139;28;20176;-89
2021/05/22 03:41:39;;;;;;;10.07;2.03;;;11.20;99.90;;;;;;5053595;28;20188;-90
2021/05/22 03:44:05;;;;;;;12.07;2.13;;;11.20;99.90;;;;;;5079034;28;20160;-90
2021/05/22 03:46:31;;;;;;;9.23;1.92;;;11.20;99.90;;;;;;5072486;28;20198;-90
2021/05/22 03:48:56;;;;;;;8.95;2.22;;;11.20;99.90;;;;;;5056202;28;20203;-89
2021/05/22 03:51:22;;;;;;;12.70;2.10;;;11.20;99.90;;;;;;5055357;28;20167;-90
2021/05/22 03:53:48;;;;;;;10.25;2.42;;;11.20;99.90;;;;;;5055061;28;20171;-89
2021/05/22 03:56:13;;;;;;;11.20;1.92;;;11.20;99.90;;;;;;5055055;28;20163;-91
2021/05/22 03:58:39;;;;;;;13.18;3.00;;;11.10;99.90;;;;;;5069529;28;20183;-88
2021/05/22 04:01:05;;;;;;;8.32;1.55;;;11.10;99.90;;;;;;5059231;28;20194;-89
2021/05/22 04:03:30;;;;;;;9.05;1.95;;;11.10;99.90;;;;;;5069974;28;20624;-90
2021/05/22 04:05:56;;;;;;;12.30;1.83;;;11.20;99.90;;;;;;5039734;28;20586;-90
2021/05/22 04:08:22;;;;;;;13.93;2.15;;;11.10;99.90;;;;;;5054885;28;20170;-89
2021/05/22 04:10:48;;;;;;;10.82;1.50;;;11.10;99.90;;;;;;5055058;28;20203;-90
2021/05/22 04:13:14;;;;;;;6.75;1.80;;;11.10;99.90;;;;;;5055005;28;20641;-91
2021/05/22 04:15:40;;;;;;;9.60;2.13;;;11.20;99.90;;;;;;5054943;28;20167;-91
2021/05/22 04:18:05;;;;;;;7.35;1.60;;;11.20;99.90;;;;;;5054568;28;20671;-92
2021/05/22 04:20:31;;;;;;;12.63;2.10;;;11.20;99.90;;;;;;5056017;28;20168;-91
2021/05/22 04:22:57;;;;;;;11.60;2.10;;;11.10;99.90;;;;;;5054451;28;20530;-91
2021/05/22 04:25:23;;;;;;;12.05;1.80;;;11.10;99.90;;;;;;5043333;28;20507;-90
2021/05/22 04:27:48;;;;;;;9.25;1.52;;;11.10;99.90;;;;;;5074267;28;20171;-91
2021/05/22 04:30:15;;;;;;;8.70;2.08;;;11.10;99.90;;;;;;5055612;28;20191;-91
2021/05/22 04:32:40;;;;;;;14.68;2.30;;;11.10;99.90;;;;;;5055613;28;20164;-90
2021/05/22 04:35:07;;;;;;;9.82;1.88;;;11.10;99.90;;;;;;5055612;28;20512;-91
2021/05/22 04:37:33;;;;;;;10.30;2.33;;;11.00;99.90;;;;;;5055785;28;20163;-91
2021/05/22 04:39:58;;;;;;;7.70;1.60;;;11.00;99.90;;;;;;5054226;28;20175;-89
2021/05/22 04:42:24;;;;;;;5.22;1.60;;;10.90;99.90;;;;;;5038143;28;20167;-92
2021/05/22 04:44:50;;;;;;;31.40;2.10;;;10.80;99.90;;;;;;5054619;28;20168;-91
2021/05/22 04:47:16;;;;;;;6.13;1.67;;;10.80;99.90;;;;;;5054274;28;20503;-91
2021/05/22 04:49:42;;;;;;;11.20;1.88;;;10.80;99.90;;;;;;5053993;28;20203;-89
2021/05/22 04:52:07;;;;;;;6.82;2.25;;;10.80;99.90;;;;;;5054166;28;20163;-91
2021/05/22 04:54:33;;;;;;;9.23;1.83;;;10.90;99.90;;;;;;5054236;28;20218;-90
2021/05/22 04:56:59;;;;;;;6.80;1.50;;;11.00;99.90;;;;;;5053497;28;20194;-90
2021/05/22 04:59:25;;;;;;;16.40;2.10;;;11.00;99.90;;;;;;5055046;28;20171;-90
2021/05/22 05:01:50;;;;;;;9.98;1.63;;;11.10;99.90;;;;;;5037226;28;20184;-91
2021/05/22 05:04:16;;;;;;;5.93;1.60;;;11.10;99.90;;;;;;5053971;28;20171;-92
2021/05/22 05:06:42;;;;;;;10.45;2.13;;;11.10;99.90;;;;;;5053990;28;20595;-90
2021/05/22 05:09:08;;;;;;;4.60;1.67;;;11.00;99.90;;;;;;5037390;28;20243;-91
2021/05/22 05:11:33;;;;;;;11.88;1.95;;;11.00;99.90;;;;;;5053987;28;20250;-90
2021/05/22 05:13:59;;;;;;;13.07;2.08;;;11.10;99.90;;;;;;5054339;28;20225;-90
2021/05/22 05:16:25;;;;;;;12.90;2.08;;;11.10;99.90;;;;;;5054071;28;20170;-90
2021/05/22 05:18:51;;;;;;;12.52;1.90;;;11.10;99.90;;;;;;5055037;28;20168;-91
2021/05/22 05:21:17;;;;;;;13.18;1.95;;;11.10;99.90;;;;;;5037513;28;20179;-89
2021/05/22 05:23:43;;;;;;;11.10;1.77;;;11.10;99.90;;;;;;5055117;28;20167;-92
2021/05/22 05:26:09;;;;;;;5.35;1.48;;;11.10;99.90;;;;;;5055832;28;20179;-88
2021/05/22 05:28:35;;;;;;;4.55;1.20;;;11.10;99.90;;;;;;5038653;28;20217;-89
2021/05/22 05:31:01;;;;;;;11.02;1.98;;;11.10;99.90;;;;;;5054429;28;20175;-89
2021/05/22 05:33:27;;;;;;;10.68;2.08;;;11.00;99.90;;;;;;5054453;28;20191;-89
2021/05/22 05:35:53;;;;;;;13.13;1.98;;;11.10;99.90;;;;;;5053088;28;20168;-90
2021/05/22 05:38:19;;;;;;;13.30;2.15;;;11.10;99.90;;;;;;5053321;28;20245;-92
2021/05/22 05:40:44;;;;;;;9.32;1.65;;;11.00;99.90;;;;;;5053236;28;20667;-90
2021/05/22 05:43:10;;;;;;;11.35;1.77;;;10.90;99.90;;;;;;5053634;28;20167;-93
2021/05/22 05:45:40;;;;;;;13.35;2.05;;;10.90;99.90;;;;;;5053353;28;20175;-89
2021/05/22 05:48:07;;;;;;;10.57;1.80;;;10.80;99.90;;;;;;5054454;28;20190;-90
2021/05/22 05:50:33;;;;;;;6.15;1.63;;;10.80;99.90;;;;;;5053682;28;20191;-89
2021/05/22 05:52:59;;;;;;;11.18;2.15;;;10.80;99.90;;;;;;5054112;28;20183;-91
2021/05/22 05:55:25;;;;;;;11.60;2.17;;;10.80;99.90;;;;;;5053866;28;20173;-91
2021/05/22 05:57:51;;;;;;;10.60;2.42;;;10.80;99.90;;;;;;5053344;28;20543;-90
2021/05/22 06:00:17;;;;;;;8.25;2.00;;;10.70;99.90;;;;;;5053371;28;20175;-89
2021/05/22 06:02:43;;;;;;;19.10;2.78;;;10.70;99.90;;;;;;5054269;28;20166;-90
2021/05/22 06:05:09;;;;;;;11.75;1.92;;;10.70;99.90;;;;;;5054022;28;20175;-90
2021/05/22 06:07:35;;;;;;;9.82;1.90;;;10.70;99.90;;;;;;5055246;28;20160;-90
2021/05/22 06:10:01;;;;;;;9.05;1.65;;;10.70;99.90;;;;;;5067927;28;20210;-89
2021/05/22 06:12:27;;;;;;;8.18;1.60;;;10.70;99.90;;;;;;5072798;28;20175;-89
2021/05/22 06:14:56;;;;;;;9.80;1.20;;;10.70;99.90;;;;;;5069501;28;20186;-89
2021/05/22 06:17:22;;;;;;;8.48;1.42;;;10.70;99.90;;;;;;5052827;28;20168;-89
2021/05/22 06:19:48;;;;;;;7.53;2.05;;;10.70;99.90;;;;;;5053004;28;20266;-90
2021/05/22 06:22:13;;;;;;;5.78;1.40;;;10.70;99.90;;;;;;5038059;28;20666;-89
2021/05/22 06:24:39;;;;;;;9.82;1.70;;;10.70;99.90;;;;;;5052784;28;20262;-89
2021/05/22 06:27:05;;;;;;;10.05;1.42;;;10.70;99.90;;;;;;5062980;28;20218;-90
2021/05/22 06:29:31;;;;;;;3.40;1.48;;;10.60;99.90;;;;;;5070631;28;20211;-88
2021/05/22 06:31:56;;;;;;;8.73;1.70;;;10.60;99.90;;;;;;5066904;28;20183;-90
2021/05/22 06:34:22;;;;;;;13.27;1.90;;;10.70;99.90;;;;;;5052755;28;20182;-88
2021/05/22 06:36:49;;;;;;;7.47;1.90;;;10.80;99.90;;;;;;5053086;28;20168;-90
2021/05/22 06:39:15;;;;;;;7.40;1.92;;;10.90;99.90;;;;;;5052792;28;20237;-91
2021/05/22 06:41:40;;;;;;;11.48;2.08;;;10.90;99.90;;;;;;5052771;28;20176;-89
2021/05/22 06:44:08;;;;;;;7.25;1.90;;;11.10;99.90;;;;;;5052630;28;20176;-91
2021/05/22 06:48:59;;;;;;;8.02;1.67;;;11.50;99.90;;;;;;5056480;28;20256;-89
2021/05/22 06:51:25;;;;;;;12.23;2.00;;;11.60;99.90;;;;;;5056149;28;20267;-88
2021/05/22 06:53:50;;;;;;;9.40;2.10;;;11.70;99.90;;;;;;5056038;28;20174;-88
2021/05/22 06:56:16;;;;;;;8.95;2.00;;;11.80;99.90;;;;;;5039458;28;20171;-88
2021/05/22 06:58:42;;;;;;;12.18;1.98;;;11.80;99.90;;;;;;5039675;28;20176;-88
2021/05/22 07:01:07;;;;;;;5.90;1.40;;;11.90;99.90;;;;;;5055959;28;20167;-88
2021/05/22 07:03:33;;;;;;;14.18;2.42;;;11.80;99.90;;;;;;5055225;28;20175;-89
2021/05/22 07:06:00;;;;;;;8.85;1.42;;;11.80;99.90;;;;;;5039483;28;20183;-92
2021/05/22 07:08:26;;;;;;;11.43;1.92;;;11.70;99.90;;;;;;5039260;28;20172;-87
2021/05/22 07:10:53;;;;;;;12.32;3.60;;;11.60;99.90;;;;;;5055879;28;20302;-88
2021/05/22 07:13:18;;;;;;;11.70;2.03;;;11.60;99.90;;;;;;5056436;28;20221;-89
2021/05/22 07:15:44;;;;;;;8.93;2.00;;;11.70;99.90;;;;;;5061608;28;20171;-89
2021/05/22 07:18:10;;;;;;;9.38;2.38;;;11.70;99.90;;;;;;5060810;28;20648;-89
2021/05/22 07:20:35;;;;;;;6.75;1.88;;;11.80;99.90;;;;;;5060531;28;20624;-87
2021/05/22 07:23:01;;;;;;;13.85;2.10;;;11.70;99.90;;;;;;5038131;28;20263;-89
2021/05/22 07:25:27;;;;;;;9.82;1.95;;;11.60;99.90;;;;;;5036811;28;20172;-90
2021/05/22 07:27:53;;;;;;;8.23;2.63;;;11.60;99.90;;;;;;5035642;28;20176;-89
2021/05/22 07:30:20;;;;;;;7.15;1.90;;;11.50;99.90;;;;;;5037152;28;20212;-88
2021/05/22 07:32:46;;;;;;;10.93;2.03;;;11.40;99.90;;;;;;5040162;28;20194;-88
2021/05/22 07:35:13;;;;;;;11.55;2.35;;;11.50;99.90;;;;;;5059812;28;20591;-87
2021/05/22 07:37:40;;;;;;;7.05;1.70;;;11.40;99.90;;;;;;5057091;28;20175;-86
2021/05/22 07:40:08;;;;;;;9.50;1.83;;;11.50;99.90;;;;;;5055522;28;20197;-87
2021/05/22 07:42:34;;;;;;;8.48;2.65;;;11.50;99.90;;;;;;5088214;28;20207;-87
2021/05/22 07:45:00;;;;;;;11.80;2.35;;;11.50;99.90;;;;;;5038189;28;20187;-86
2021/05/22 07:47:26;;;;;;;12.27;1.85;;;11.40;99.90;;;;;;5055146;28;20164;-87
2021/05/22 07:49:52;;;;;;;9.35;2.63;;;11.30;99.90;;;;;;5038501;28;20210;-87
2021/05/22 07:52:19;;;;;;;9.02;2.25;;;11.20;99.90;;;;;;5055830;28;20171;-87
2021/05/22 07:54:46;;;;;;;9.73;2.17;;;11.10;99.90;;;;;;5055389;28;20179;-88
2021/05/22 07:57:12;;;;;;;7.07;2.15;;;11.10;99.90;;;;;;5054917;28;20187;-87
2021/05/22 07:59:39;;;;;;;9.60;1.77;;;11.20;99.90;;;;;;5054257;28;20509;-87
2021/05/22 08:02:07;;;;;;;13.52;2.28;;;11.20;99.90;;;;;;5054814;28;20171;-85
2021/05/22 08:04:32;;;;;;;7.05;1.80;;;11.40;99.90;;;;;;5054649;28;20210;-86
2021/05/22 08:06:58;;;;;;;8.02;2.03;;;11.70;99.90;;;;;;5054728;28;20167;-89
2021/05/22 08:09:24;;;;;;;6.05;1.98;;;11.80;99.90;;;;;;5054408;28;20687;-88
2021/05/22 08:11:50;;;;;;;5.30;2.40;;;11.90;99.90;;;;;;5055823;28;20210;-88
2021/05/22 08:14:16;;;;;;;8.75;1.90;;;11.80;99.90;;;;;;5054369;28;20254;-91
2021/05/22 08:16:42;;;;;;;17.25;1.88;;;11.80;99.90;;;;;;5037792;28;20171;-87
2021/05/22 08:19:09;;;;;;;6.57;1.58;;;11.80;99.90;;;;;;5053685;28;20217;-87
2021/05/22 08:21:35;;;;;;;10.13;1.67;;;11.70;99.90;;;;;;5054352;28;20567;-87
2021/05/22 08:24:01;;;;;;;9.70;1.80;;;11.80;99.90;;;;;;5055422;28;20691;-88
2021/05/22 08:26:26;;;;;;;10.60;2.75;;;11.80;99.90;;;;;;5056421;28;20212;-87
2021/05/22 08:28:53;;;;;;;12.43;2.33;;;11.70;99.90;;;;;;5062155;28;20143;-88
2021/05/22 08:31:20;;;;;;;8.77;3.05;;;11.80;99.90;;;;;;5078417;28;20164;-90
2021/05/22 08:33:46;;;;;;;10.43;2.15;;;11.90;99.90;;;;;;5078051;28;20166;-87
2021/05/22 08:36:12;;;;;;;7.57;1.92;;;12.00;99.90;;;;;;5078375;28;20160;-87
2021/05/22 08:38:38;;;;;;;7.65;1.60;;;12.20;99.90;;;;;;5065643;28;20178;-86
2021/05/22 08:41:06;;;;;;;8.50;1.90;;;12.60;99.90;;;;;;5058810;28;20157;-88
2021/05/22 08:43:32;;;;;;;9.23;1.88;;;13.20;99.90;;;;;;5065635;28;20183;-85
2021/05/22 08:45:58;;;;;;;10.98;1.92;;;13.60;99.90;;;;;;5078129;28;20242;-87
2021/05/22 08:48:24;;;;;;;9.10;1.92;;;13.60;99.90;;;;;;5061168;28;20163;-85
2021/05/22 08:50:50;;;;;;;7.63;2.45;;;13.50;99.90;;;;;;5055043;28;20195;-88
2021/05/22 08:53:16;;;;;;;8.45;1.90;;;13.30;99.90;;;;;;5065871;28;20223;-89
2021/05/22 08:55:41;;;;;;;15.90;2.42;;;13.20;99.90;;;;;;5074043;28;20193;-86
2021/05/22 08:58:07;;;;;;;10.07;2.35;;;13.20;99.90;;;;;;5069090;28;20195;-88
2021/05/22 09:00:42;;;;;;;5.57;1.60;;;13.20;99.90;;;;;;5071717;28;20174;-87
2021/05/22 09:03:12;;;;;;;10.60;2.13;;;13.00;99.90;;;;;;5053303;28;20262;-87
2021/05/22 09:05:41;;;;;;;10.07;1.83;;;12.80;99.90;;;;;;5059379;28;20209;-88
2021/05/22 09:08:11;;;;;;;11.40;2.00;;;12.80;99.90;;;;;;5061895;28;20160;-87
2021/05/22 09:10:39;;;;;;;11.23;2.10;;;12.80;99.90;;;;;;5053709;28;20256;-89
2021/05/22 09:13:11;;;;;;;7.53;1.95;;;13.00;99.90;;;;;;5050831;28;20226;-88
2021/05/22 09:15:42;;;;;;;9.43;2.38;;;13.20;99.90;;;;;;5039164;28;20476;-87
2021/05/22 09:18:16;;;;;;;8.07;1.50;;;13.30;99.90;;;;;;5053161;28;20632;-88
2021/05/22 09:20:53;;;;;;;10.50;2.45;;;13.40;99.90;;;;;;5052712;28;20178;-88
2021/05/22 09:23:21;;;;;;;9.15;1.90;;;13.50;99.90;;;;;;5052395;28;20213;-88
2021/05/22 09:25:57;;;;;;;9.60;2.75;;;13.30;99.90;;;;;;5054098;28;20175;-88
2021/05/22 09:28:34;;;;;;;5.63;2.22;;;13.20;99.90;;;;;;5033207;28;20203;-87
2021/05/22 09:31:01;;;;;;;6.93;2.10;;;13.20;99.90;;;;;;5076265;28;20549;-87
2021/05/22 09:33:29;;;;;;;14.25;1.98;;;13.30;99.90;;;;;;5043807;28;20616;-86
2021/05/22 09:35:57;;;;;;;8.45;2.20;;;13.20;99.90;;;;;;5048548;28;20205;-86
2021/05/22 09:38:43;;;;;;;10.23;2.20;;;13.00;99.90;;;;;;5043182;28;20175;-87
2021/05/22 09:41:28;;;;;;;11.27;2.30;;;13.00;99.90;;;;;;5061980;28;20330;-85
2021/05/22 09:44:33;;;;;;;16.70;2.40;;;13.00;99.90;;;;;;5052188;28;20175;-86
2021/05/22 09:47:00;;;;;;;13.48;2.50;;;12.70;99.90;;;;;;4995894;28;20217;-88
2021/05/22 09:49:29;;;;;;;13.63;2.05;;;12.80;99.90;;;;;;4996658;28;20238;-87
2021/05/22 09:51:57;;;;;;;7.45;2.25;;;12.70;99.90;;;;;;5031023;28;20211;-86
2021/05/22 09:54:52;;;;;;;7.07;2.20;;;12.80;99.90;;;;;;5036249;28;20176;-86
2021/05/22 09:57:38;;;;;;;6.88;2.03;;;12.90;99.90;;;;;;5050894;28;20243;-85
2021/05/22 10:00:19;;;;;;;9.13;2.63;;;13.10;99.90;;;;;;5053889;28;20183;-85
2021/05/22 10:02:58;;;;;;;8.63;2.50;;;13.30;99.90;;;;;;5056190;28;20170;-86
2021/05/22 10:05:29;;;;;;;9.57;2.42;;;13.40;99.90;;;;;;5053471;28;20186;-87
2021/05/22 10:07:56;;;;;;;6.85;2.50;;;13.60;99.90;;;;;;5052618;28;20163;-86
2021/05/22 10:10:36;;;;;;;7.55;2.10;;;13.70;99.90;;;;;;5052824;28;20675;-87
2021/05/22 10:13:04;;;;;;;6.40;1.85;;;13.80;99.90;;;;;;5052379;28;20190;-87
2021/05/22 10:15:30;;;;;;;13.60;2.28;;;13.80;99.90;;;;;;5062127;28;20180;-85
2021/05/22 10:17:56;;;;;;;7.03;2.15;;;13.70;99.90;;;;;;5036188;28;20518;-88
2021/05/22 10:20:22;;;;;;;13.80;2.95;;;13.60;99.90;;;;;;5016525;28;20184;-87
2021/05/22 10:22:48;;;;;;;10.57;2.15;;;13.50;99.90;;;;;;5046137;28;20181;-87
2021/05/22 10:25:13;;;;;;;7.65;2.00;;;13.40;99.90;;;;;;5070266;28;20166;-85
2021/05/22 10:27:39;;;;;;;6.63;2.58;;;13.40;99.90;;;;;;5057453;28;20250;-84
2021/05/22 10:30:07;;;;;;;9.70;2.30;;;13.40;99.90;;;;;;5089293;28;20238;-86
2021/05/22 10:32:33;;;;;;;6.78;2.33;;;13.20;99.90;;;;;;5056315;28;20167;-86
2021/05/22 10:35:19;;;;;;;12.27;2.30;;;12.90;99.90;;;;;;5070130;28;20185;-85
2021/05/22 10:37:46;;;;;;;11.00;2.47;;;12.80;99.90;;;;;;5044857;28;20513;-86
2021/05/22 10:40:16;;;;;;;8.20;2.40;;;12.80;99.90;;;;;;5091392;28;20175;-85
2021/05/22 10:42:53;;;;;;;11.88;2.90;;;12.70;99.90;;;;;;5058757;28;20253;-87
2021/05/22 10:45:26;;;;;;;9.80;2.25;;;12.70;99.90;;;;;;5048052;28;20658;-84
2021/05/22 10:47:52;;;;;;;10.65;2.05;;;12.80;99.90;;;;;;5056158;28;20182;-85
2021/05/22 10:50:41;;;;;;;12.65;2.42;;;12.90;99.90;;;;;;5054989;28;20191;-85
2021/05/22 10:53:36;;;;;;;17.35;2.58;;;13.00;99.90;;;;;;5077941;28;20270;-85
2021/05/22 10:56:09;;;;;;;5.07;1.90;;;13.00;99.90;;;;;;5050110;28;20175;-84
2021/05/22 10:58:39;;;;;;;11.23;2.03;;;12.90;99.90;;;;;;5056503;28;20229;-85
2021/05/22 11:01:23;;;;;;;9.63;2.53;;;12.70;99.90;;;;;;5040022;28;20259;-85
2021/05/22 11:04:08;;;;;;;11.50;2.22;;;12.70;99.90;;;;;;5062099;28;20515;-85
2021/05/22 11:06:40;;;;;;;7.75;2.17;;;12.80;99.90;;;;;;5060509;28;20636;-85
2021/05/22 11:09:24;;;;;;;11.02;2.67;;;12.90;99.90;;;;;;5057819;28;20184;-87
2021/05/22 11:11:50;;;;;;;6.03;2.42;;;12.90;99.90;;;;;;5090986;28;20215;-85
2021/05/22 11:14:34;;;;;;;10.55;1.90;;;12.80;99.90;;;;;;5057648;28;20210;-85
2021/05/22 11:17:01;;;;;;;7.00;1.85;;;13.00;99.90;;;;;;5055297;28;20174;-85
2021/05/22 11:19:26;;;;;;;8.23;2.38;;;13.10;99.90;;;;;;5055189;28;20179;-84
2021/05/22 11:22:16;;;;;;;11.35;1.98;;;13.20;99.90;;;;;;5089297;28;20334;-84
2021/05/22 11:25:03;;;;;;;11.65;1.77;;;13.30;99.90;;;;;;5038557;28;20220;-85
2021/05/22 11:30:30;;;;;;;3.33;1.58;;;13.10;99.90;;;;;;5071757;28;20199;-86
2021/05/22 11:32:58;;;;;;;6.05;1.90;;;13.20;99.90;;;;;;5054785;28;20178;-84
2021/05/22 11:35:30;;;;;;;4.28;2.15;;;13.30;99.90;;;;;;5055591;28;20211;-85
2021/05/22 11:38:16;;;;;;;3.88;1.63;;;13.40;99.90;;;;;;5057358;28;20696;-85
2021/05/22 11:40:50;;;;;;;7.95;1.75;;;13.30;99.90;;;;;;5053224;28;20727;-83
2021/05/22 11:43:16;;;;;;;6.68;2.10;;;13.60;99.90;;;;;;5052108;28;20155;-85
2021/05/22 11:46:02;;;;;;;5.32;1.95;;;13.60;99.90;;;;;;5066685;28;20210;-83
2021/05/22 11:48:47;;;;;;;4.78;1.60;;;13.30;99.90;;;;;;5035519;28;20175;-83
2021/05/22 11:51:32;;;;;;;5.15;1.58;;;12.90;99.90;;;;;;5053794;28;20206;-84
2021/05/22 11:53:59;;;;;;;8.32;1.90;;;12.80;99.90;;;;;;5088537;28;20539;-83
2021/05/22 11:56:26;;;;;;;5.70;2.15;;;12.60;99.90;;;;;;5040076;28;20180;-83
2021/05/22 11:58:57;;;;;;;12.80;2.97;;;12.60;99.90;;;;;;5054084;28;20175;-83
2021/05/22 12:01:38;;;;;;;4.38;2.35;;;12.40;99.90;;;;;;5054391;28;20174;-84
2021/05/22 12:04:06;;;;;;;5.28;2.47;;;12.50;99.90;;;;;;5054673;28;20194;-84
2021/05/22 12:06:41;;;;;;;4.93;2.33;;;12.60;99.90;;;;;;5056249;28;20624;-84
2021/05/22 12:09:20;;;;;;;7.85;2.47;;;12.80;99.90;;;;;;5068638;28;20184;-85
2021/05/22 12:12:02;;;;;;;7.57;2.70;;;13.10;99.90;;;;;;5051142;28;20175;-84
2021/05/22 12:14:43;;;;;;;4.05;2.10;;;13.30;99.90;;;;;;5055010;28;20174;-84
2021/05/22 12:17:10;;;;;;;3.67;2.05;;;13.40;99.90;;;;;;5054221;28;20601;-85
2021/05/22 12:19:38;;;;;;;4.15;1.98;;;13.50;99.90;;;;;;5053168;28;20571;-84
2021/05/22 12:22:04;;;;;;;4.15;2.05;;;13.60;99.90;;;;;;5056477;28;20278;-85
2021/05/22 12:24:31;;;;;;;3.67;1.58;;;13.70;99.90;;;;;;5054479;28;20664;-86
2021/05/22 12:26:57;;;;;;;2.13;1.10;;;13.60;99.90;;;;;;5053211;28;20509;-85
2021/05/22 12:29:25;;;;;;;3.20;1.38;;;13.40;99.90;;;;;;5053284;28;20195;-84
2021/05/22 12:31:55;;;;;;;2.25;1.38;;;13.30;99.90;;;;;;5052583;28;20206;-84
2021/05/22 12:34:32;;;;;;;4.10;1.55;;;13.30;99.90;;;;;;5049982;28;20656;-85
2021/05/22 12:37:08;;;;;;;3.75;1.98;;;13.20;99.90;;;;;;5035853;28;20237;-84
2021/05/22 12:39:48;;;;;;;6.53;1.40;;;13.30;99.90;;;;;;5042900;28;20192;-84
2021/05/22 12:42:18;;;;;;;4.55;1.90;;;13.00;99.90;;;;;;5051167;28;20250;-84
2021/05/22 12:44:45;;;;;;;13.18;1.50;;;12.90;99.90;;;;;;5052588;28;20258;-84
2021/05/22 12:47:12;;;;;;;3.45;1.25;;;12.90;99.90;;;;;;5032941;28;20286;-84
2021/05/22 12:49:49;;;;;;;8.10;1.60;;;13.00;99.90;;;;;;5056940;28;20552;-84
2021/05/22 12:52:14;;;;;;;2.28;1.30;;;13.10;99.90;;;;;;5034412;28;20198;-83
2021/05/22 12:54:43;;;;;;;4.35;1.50;;;13.00;99.90;;;;;;5052275;28;20163;-85